createdAt,value
2022-12-19T00:00:21.759Z,-23093.06
2022-12-19T00:02:24.621Z,-23092.41
2022-12-19T00:04:28.786Z,-23092.91
2022-12-19T00:06:32.110Z,-23094.03
2022-12-19T00:08:34.770Z,-23095.78
2022-12-19T00:10:37.432Z,-23094.97
2022-12-19T00:12:40.154Z,-23094.34
2022-12-19T00:14:42.868Z,-23096.25
2022-12-19T00:16:46.024Z,-23096.25
2022-12-19T00:18:50.572Z,-23093.38
2022-12-19T00:21:01.255Z,-23094.50
2022-12-19T00:23:03.942Z,-23096.56
2022-12-19T00:25:07.393Z,-23094.97
2022-12-19T00:27:11.109Z,-23095.13
2022-12-19T00:29:14.517Z,-23094.19
2022-12-19T00:31:19.288Z,-23094.97
2022-12-19T00:33:21.990Z,-23096.41
2022-12-19T00:35:24.926Z,-23094.19
2022-12-19T00:37:29.025Z,-23096.75
2022-12-19T00:39:31.774Z,-23097.22
2022-12-19T00:41:36.596Z,-23096.91
2022-12-19T00:43:40.126Z,-23107.31
2022-12-19T00:45:42.895Z,-23103.78
2022-12-19T00:47:45.635Z,-23102.19
2022-12-19T00:49:48.361Z,-23099.47
2022-12-19T00:51:52.423Z,-23102.81
2022-12-19T00:53:58.429Z,-23101.38
2022-12-19T00:56:03.689Z,-23101.53
2022-12-19T00:58:06.373Z,-23099.16
2022-12-19T01:00:10.826Z,-23102.81
2022-12-19T01:02:13.670Z,-23104.59
2022-12-19T01:04:28.163Z,-23103.31
2022-12-19T01:06:31.561Z,-23096.41
2022-12-19T01:08:34.715Z,-23096.25
2022-12-19T01:10:38.742Z,-23090.81
2022-12-19T01:12:46.238Z,-23086.66
2022-12-19T01:14:48.129Z,-23087.94
2022-12-19T01:16:51.351Z,-23086.97
2022-12-19T01:18:54.061Z,-23089.38
2022-12-19T01:21:00.252Z,-23087.31
2022-12-19T01:23:02.966Z,-23086.34
2022-12-19T01:25:06.612Z,-23093.69
2022-12-19T01:27:10.674Z,-23090.66
2022-12-19T01:29:13.547Z,-23089.53
2022-12-19T01:31:16.236Z,-23090.81
2022-12-19T01:33:21.898Z,-23090.19
2022-12-19T01:35:25.503Z,-23088.25
2022-12-19T01:37:28.261Z,-23089.53
2022-12-19T01:39:30.972Z,-23088.56
2022-12-19T01:41:36.330Z,-23094.97
2022-12-19T01:43:56.664Z,-23095.78
2022-12-19T01:46:01.901Z,-23098.81
2022-12-19T01:48:18.422Z,-23097.84
2022-12-19T01:50:25.208Z,-23091.78
2022-12-19T01:52:28.036Z,-23089.84
2022-12-19T01:54:34.190Z,-23095.31
2022-12-19T01:56:42.226Z,-23095.31
2022-12-19T01:58:47.046Z,-23098.19
2022-12-19T02:00:51.270Z,-23099.16
2022-12-19T02:02:57.991Z,-23097.22
2022-12-19T02:05:01.566Z,-23098.97
2022-12-19T02:07:08.678Z,-23098.19
2022-12-19T02:09:19.253Z,-23094.66
2022-12-19T02:11:21.922Z,-23094.34
2022-12-19T02:13:25.313Z,-23096.25
2022-12-19T02:15:34.109Z,-23096.25
2022-12-19T02:17:52.494Z,-23092.75
2022-12-19T02:20:42.864Z,-23090.50
2022-12-19T02:23:02.183Z,-23092.75
2022-12-19T02:25:25.985Z,-23086.34
2022-12-19T02:27:55.984Z,-23084.72
2022-12-19T02:30:07.130Z,-23086.19
2022-12-19T02:32:20.088Z,-23087.94
2022-12-19T02:34:30.673Z,-23089.22
2022-12-19T02:36:40.295Z,-23092.91
2022-12-19T02:38:53.910Z,-23093.22
2022-12-19T02:41:01.870Z,-23093.53
2022-12-19T02:43:05.800Z,-23093.38
2022-12-19T02:45:11.331Z,-23096.91
2022-12-19T02:47:20.460Z,-23097.22
2022-12-19T02:49:31.029Z,-23098.97
2022-12-19T02:51:34.232Z,-23099.16
2022-12-19T02:53:38.275Z,-23101.06
2022-12-19T02:55:47.912Z,-23101.06
2022-12-19T02:58:24.004Z,-23103.16
2022-12-19T03:00:28.660Z,-23105.38
2022-12-19T03:02:39.288Z,-23106.19
2022-12-19T03:04:48.764Z,-23106.97
2022-12-19T03:06:54.862Z,-23107.78
2022-12-19T03:09:03.744Z,-23113.69
2022-12-19T03:11:08.993Z,-23110.97
2022-12-19T03:13:15.461Z,-23110.50
2022-12-19T03:15:19.863Z,-23114.50
2022-12-19T03:17:22.609Z,-23114.81
2022-12-19T03:19:26.829Z,-23112.25
2022-12-19T03:21:35.627Z,-23117.38
2022-12-19T03:23:39.202Z,-23119.31
2022-12-19T03:25:45.485Z,-23125.69
2022-12-19T03:27:50.676Z,-23123.94
2022-12-19T03:29:57.856Z,-23123.47
2022-12-19T03:32:01.927Z,-23124.41
2022-12-19T03:34:09.894Z,-23122.97
2022-12-19T03:36:20.578Z,-23121.22
2022-12-19T03:38:23.956Z,-23118.97
2022-12-19T03:40:29.268Z,-23118.66
2022-12-19T03:42:51.757Z,-23118.03
2022-12-19T03:44:58.626Z,-23121.38
2022-12-19T03:47:07.923Z,-23125.06
2022-12-19T03:49:11.200Z,-23124.75
2022-12-19T03:51:31.237Z,-23123.78
2022-12-19T03:53:46.823Z,-23122.81
2022-12-19T03:55:55.677Z,-23127.63
2022-12-19T03:58:02.131Z,-23127.63
2022-12-19T04:00:08.606Z,-23129.53
2022-12-19T04:02:14.228Z,-23130.81
2022-12-19T04:04:18.181Z,-23128.41
2022-12-19T04:06:22.674Z,-23129.22
2022-12-19T04:08:25.847Z,-23129.84
2022-12-19T04:10:30.049Z,-23130.50
2022-12-19T04:12:37.668Z,-23131.47
2022-12-19T04:14:41.331Z,-23131.78
2022-12-19T04:16:49.289Z,-23133.69
2022-12-19T04:18:59.181Z,-23137.06
2022-12-19T04:21:06.623Z,-23135.13
2022-12-19T04:23:18.773Z,-23134.66
2022-12-19T04:25:29.568Z,-23134.34
2022-12-19T04:27:34.894Z,-23133.22
2022-12-19T04:29:39.598Z,-23134.34
2022-12-19T04:31:43.067Z,-23136.25
2022-12-19T04:33:45.689Z,-23138.66
2022-12-19T04:35:48.570Z,-23137.22
2022-12-19T04:37:52.304Z,-23133.84
2022-12-19T04:39:56.308Z,-23133.69
2022-12-19T04:41:58.972Z,-23137.53
2022-12-19T04:44:01.699Z,-23139.78
2022-12-19T04:46:04.571Z,-23141.84
2022-12-19T04:48:07.618Z,-23143.59
2022-12-19T04:50:12.091Z,-23140.41
2022-12-19T04:52:14.759Z,-23142.34
2022-12-19T04:54:17.456Z,-23141.84
2022-12-19T04:56:21.537Z,-23145.22
2022-12-19T04:58:24.315Z,-23146.97
2022-12-19T05:00:27.145Z,-23147.75
2022-12-19T05:02:30.003Z,-23144.41
2022-12-19T05:04:32.781Z,-23144.88
2022-12-19T05:06:35.542Z,-23147.59
2022-12-19T05:08:40.479Z,-23149.22
2022-12-19T05:10:43.111Z,-23149.38
2022-12-19T05:12:48.121Z,-23153.03
2022-12-19T05:14:50.779Z,-23151.75
2022-12-19T05:16:58.856Z,-23151.28
2022-12-19T05:19:03.226Z,-23149.03
2022-12-19T05:21:06.522Z,-23148.41
2022-12-19T05:23:15.308Z,-23152.25
2022-12-19T05:25:19.659Z,-23154.47
2022-12-19T05:27:22.589Z,-23154.81
2022-12-19T05:29:26.702Z,-23155.91
2022-12-19T05:31:29.457Z,-23158.78
2022-12-19T05:33:32.245Z,-23162.94
2022-12-19T05:35:35.263Z,-23163.28
2022-12-19T05:37:38.021Z,-23162.47
2022-12-19T05:39:40.714Z,-23159.59
2022-12-19T05:41:46.366Z,-23156.06
2022-12-19T05:43:53.819Z,-23149.03
2022-12-19T05:45:57.879Z,-23145.22
2022-12-19T05:48:01.648Z,-23145.38
2022-12-19T05:50:05.681Z,-23145.84
2022-12-19T05:52:08.484Z,-23145.22
2022-12-19T05:54:11.431Z,-23143.94
2022-12-19T05:56:16.381Z,-23144.88
2022-12-19T05:58:20.459Z,-23146.50
2022-12-19T06:00:23.380Z,-23146.16
2022-12-19T06:02:27.593Z,-23148.41
2022-12-19T06:04:30.689Z,-23148.25
2022-12-19T06:06:33.389Z,-23148.25
2022-12-19T06:08:36.120Z,-23149.53
2022-12-19T06:10:38.765Z,-23150.66
2022-12-19T06:12:41.681Z,-23149.69
2022-12-19T06:14:44.540Z,-23149.03
2022-12-19T06:16:47.356Z,-23146.50
2022-12-19T06:18:51.670Z,-23146.81
2022-12-19T06:20:59.278Z,-23145.53
2022-12-19T06:23:02.171Z,-23146.50
2022-12-19T06:25:05.561Z,-23145.53
2022-12-19T06:27:08.298Z,-23144.72
2022-12-19T06:29:11.144Z,-23147.94
2022-12-19T06:31:14.224Z,-23150.97
2022-12-19T06:33:17.089Z,-23151.28
2022-12-19T06:35:21.065Z,-23152.25
2022-12-19T06:37:23.802Z,-23150.66
2022-12-19T06:39:26.414Z,-23155.28
2022-12-19T06:41:46.739Z,-23155.59
2022-12-19T06:43:53.354Z,-23158.00
2022-12-19T06:45:58.271Z,-23157.03
2022-12-19T06:48:00.959Z,-23160.88
2022-12-19T06:50:03.656Z,-23161.03
2022-12-19T06:52:09.293Z,-23161.19
2022-12-19T06:54:12.272Z,-23162.94
2022-12-19T06:56:17.059Z,-23163.75
2022-12-19T06:58:24.106Z,-23167.44
2022-12-19T07:00:27.398Z,-23167.44
2022-12-19T07:02:32.602Z,-23169.66
2022-12-19T07:04:40.450Z,-23171.91
2022-12-19T07:06:48.735Z,-23174.13
2022-12-19T07:08:54.071Z,-23168.53
2022-12-19T07:10:56.802Z,-23167.25
2022-12-19T07:12:59.553Z,-23167.25
2022-12-19T07:15:02.393Z,-23165.66
2022-12-19T07:17:06.268Z,-23165.66
2022-12-19T07:19:10.145Z,-23168.38
2022-12-19T07:21:13.731Z,-23170.78
2022-12-19T07:23:19.825Z,-23171.41
2022-12-19T07:25:23.989Z,-23173.81
2022-12-19T07:27:35.188Z,-23174.63
2022-12-19T07:29:38.664Z,-23175.72
2022-12-19T07:31:42.486Z,-23175.09
2022-12-19T07:33:45.145Z,-23179.09
2022-12-19T07:35:47.793Z,-23177.81
2022-12-19T07:37:50.962Z,-23177.97
2022-12-19T07:39:53.879Z,-23176.38
2022-12-19T07:41:57.868Z,-23176.84
2022-12-19T07:44:00.579Z,-23181.47
2022-12-19T07:46:03.252Z,-23183.09
2022-12-19T07:48:07.916Z,-23188.66
2022-12-19T07:50:11.768Z,-23190.91
2022-12-19T07:52:14.543Z,-23190.75
2022-12-19T07:54:17.249Z,-23191.38
2022-12-19T07:56:19.931Z,-23189.63
2022-12-19T07:58:24.539Z,-23193.94
2022-12-19T08:00:27.295Z,-23199.06
2022-12-19T08:02:30.131Z,-23199.53
2022-12-19T08:04:34.586Z,-23207.19
2022-12-19T08:06:41.095Z,-23211.34
2022-12-19T08:08:44.107Z,-23212.94
2022-12-19T08:10:47.199Z,-23212.47
2022-12-19T08:12:50.183Z,-23210.69
2022-12-19T08:14:57.092Z,-23208.00
2022-12-19T08:19:27.245Z,-23204.16
2022-12-19T08:21:30.536Z,-23207.50
2022-12-19T08:23:34.379Z,-23207.69
2022-12-19T08:25:39.730Z,-23205.13
2022-12-19T08:27:42.984Z,-23209.44
2022-12-19T08:29:45.628Z,-23212.31
2022-12-19T08:31:49.740Z,-23203.69
2022-12-19T08:33:52.763Z,-23205.13
2022-12-19T08:35:55.913Z,-23210.69
2022-12-19T08:37:58.762Z,-23212.94
2022-12-19T08:40:01.495Z,-23214.84
2022-12-19T08:42:04.506Z,-23213.09
2022-12-19T08:44:07.316Z,-23212.63
2022-12-19T08:46:10.514Z,-23216.13
2022-12-19T08:48:14.667Z,-23221.56
2022-12-19T08:50:17.709Z,-23227.78
2022-12-19T08:52:20.419Z,-23228.75
2022-12-19T08:54:23.159Z,-23228.59
2022-12-19T08:56:25.840Z,-23232.09
2022-12-19T08:58:30.450Z,-23232.56
2022-12-19T09:00:33.122Z,-23233.22
2022-12-19T09:02:36.026Z,-23237.84
2022-12-19T09:06:01.464Z,-23234.47
2022-12-19T09:07:02.888Z,-23230.34
2022-12-19T09:09:06.863Z,-23227.00
2022-12-19T09:11:11.660Z,-23228.59
2022-12-19T09:13:14.268Z,-23224.59
2022-12-19T09:15:17.112Z,-23230.19
2022-12-19T09:17:20.809Z,-23228.59
2022-12-19T09:19:23.654Z,-23233.84
2022-12-19T09:21:30.127Z,-23236.88
2022-12-19T09:23:33.171Z,-23238.78
2022-12-19T09:25:36.736Z,-23242.47
2022-12-19T09:28:17.593Z,-23247.09
2022-12-19T09:30:02.211Z,-23251.56
2022-12-19T09:32:05.161Z,-23251.88
2022-12-19T09:34:07.827Z,-23248.38
2022-12-19T09:36:13.845Z,-23255.69
2022-12-19T09:38:17.938Z,-23255.38
2022-12-19T09:40:20.585Z,-23251.06
2022-12-19T09:42:41.850Z,-23257.44
2022-12-19T09:45:05.597Z,-23255.06
2022-12-19T09:47:14.401Z,-23264.00
2022-12-19T09:49:19.833Z,-23264.94
2022-12-19T09:51:33.887Z,-23257.28
2022-12-19T09:53:45.676Z,-23253.94
2022-12-19T09:55:59.269Z,-23256.97
2022-12-19T09:58:08.095Z,-23255.69
2022-12-19T10:00:14.587Z,-23253.63
2022-12-19T10:02:28.419Z,-23260.81
2022-12-19T10:04:37.194Z,-23265.25
2022-12-19T10:07:19.832Z,-23282.81
2022-12-19T10:09:42.711Z,-23282.00
2022-12-19T10:12:40.856Z,-23286.94
2022-12-19T10:14:26.207Z,-23293.63
2022-12-19T10:16:38.006Z,-23293.31
2022-12-19T10:18:56.398Z,-23286.47
2022-12-19T10:21:07.534Z,-23287.09
2022-12-19T10:23:30.394Z,-23285.34
2022-12-19T10:25:50.668Z,-23285.34
2022-12-19T10:28:00.462Z,-23295.22
2022-12-19T10:30:12.822Z,-23286.47
2022-12-19T10:32:23.315Z,-23284.38
2022-12-19T10:34:33.703Z,-23293.00
2022-12-19T10:39:17.692Z,-23285.66
2022-12-19T10:41:25.034Z,-23297.78
2022-12-19T10:43:44.800Z,-23299.38
2022-12-19T10:45:52.508Z,-23298.09
2022-12-19T10:47:58.516Z,-23296.19
2022-12-19T10:50:05.641Z,-23296.66
2022-12-19T10:52:13.450Z,-23299.84
2022-12-19T10:54:16.214Z,-23293.16
2022-12-19T10:56:25.493Z,-23296.50
2022-12-19T10:58:35.822Z,-23293.00
2022-12-19T11:00:39.173Z,-23294.44
2022-12-19T11:02:45.172Z,-23291.72
2022-12-19T11:04:49.010Z,-23293.94
2022-12-19T11:07:04.883Z,-23295.69
2022-12-19T11:09:19.773Z,-23300.00
2022-12-19T11:12:39.107Z,-23301.75
2022-12-19T11:18:55.406Z,-23300.47
2022-12-19T11:23:51.286Z,-23300.63
2022-12-19T11:27:48.677Z,-23307.97
2022-12-19T11:29:34.133Z,-23309.88
2022-12-19T11:30:06.373Z,-23303.19
2022-12-19T11:30:39.359Z,-23313.38
2022-12-19T11:30:48.854Z,-23312.44
2022-12-19T11:31:51.068Z,-23317.38
2022-12-19T11:33:20.541Z,-23317.84
2022-12-19T11:35:37.085Z,-23316.56
2022-12-19T11:37:45.488Z,-23317.69
2022-12-19T11:39:51.229Z,-23318.31
2022-12-19T11:42:01.673Z,-23321.34
2022-12-19T11:44:12.121Z,-23318.00
2022-12-19T11:46:27.292Z,-23320.22
2022-12-19T11:48:38.508Z,-23323.25
2022-12-19T11:51:00.104Z,-23326.91
2022-12-19T11:53:16.830Z,-23331.22
2022-12-19T11:55:24.963Z,-23324.03
2022-12-19T11:57:28.592Z,-23326.44
2022-12-19T11:59:36.541Z,-23323.25
2022-12-19T12:02:32.938Z,-23320.53
2022-12-19T12:04:54.411Z,-23314.81
2022-12-19T12:06:58.292Z,-23319.75
2022-12-19T12:13:30.546Z,-23311.78
2022-12-19T12:17:28.072Z,-23309.25
2022-12-19T12:23:20.793Z,-23312.09
2022-12-19T12:25:57.183Z,-23311.00
2022-12-19T12:31:00.295Z,-23314.03
2022-12-19T12:31:27.954Z,-23320.38
2022-12-19T12:31:48.868Z,-23323.25
2022-12-19T12:31:52.228Z,-23318.16
2022-12-19T12:31:58.469Z,-23322.31
2022-12-19T12:35:38.454Z,-23322.31
2022-12-19T12:35:54.018Z,-23327.06
2022-12-19T12:38:16.639Z,-23318.00
2022-12-19T12:40:10.489Z,-23317.19
2022-12-19T12:42:31.233Z,-23322.47
2022-12-19T12:44:41.108Z,-23326.44
2022-12-19T12:46:51.009Z,-23326.75
2022-12-19T12:49:01.580Z,-23329.31
2022-12-19T12:51:06.203Z,-23330.09
2022-12-19T12:53:11.285Z,-23328.97
2022-12-19T12:55:19.186Z,-23327.72
2022-12-19T12:57:36.252Z,-23331.69
2022-12-19T12:59:39.174Z,-23329.78
2022-12-19T13:01:42.551Z,-23327.22
2022-12-19T13:03:55.624Z,-23337.25
2022-12-19T13:06:08.214Z,-23333.59
2022-12-19T13:08:47.417Z,-23337.41
2022-12-19T13:10:56.083Z,-23330.56
2022-12-19T13:13:01.685Z,-23328.03
2022-12-19T13:15:34.340Z,-23320.72
2022-12-19T13:18:06.805Z,-23324.84
2022-12-19T13:20:44.727Z,-23319.44
2022-12-19T13:23:03.739Z,-23316.88
2022-12-19T13:25:46.992Z,-23309.56
2022-12-19T13:27:50.459Z,-23309.88
2022-12-19T13:29:56.972Z,-23311.47
2022-12-19T13:32:14.183Z,-23306.06
2022-12-19T13:34:20.145Z,-23308.59
2022-12-19T13:39:57.353Z,-23312.09
2022-12-19T13:39:58.422Z,-23313.06
2022-12-19T13:42:34.144Z,-23313.06
2022-12-19T13:44:40.868Z,-23309.72
2022-12-19T13:46:45.569Z,-23310.34
2022-12-19T13:48:51.226Z,-23311.00
2022-12-19T13:50:55.514Z,-23316.25
2022-12-19T13:52:58.453Z,-23318.78
2022-12-19T13:55:02.564Z,-23319.75
2022-12-19T13:57:09.288Z,-23318.16
2022-12-19T13:59:12.798Z,-23323.91
2022-12-19T14:01:21.536Z,-23327.38
2022-12-19T14:03:34.433Z,-23328.97
2022-12-19T14:06:17.115Z,-23331.84
2022-12-19T14:08:05.183Z,-23338.38
2022-12-19T14:11:35.024Z,-23335.03
2022-12-19T14:13:57.463Z,-23337.41
2022-12-19T14:15:28.714Z,-23339.50
2022-12-19T14:17:31.438Z,-23337.56
2022-12-19T14:19:40.106Z,-23335.66
2022-12-19T14:22:08.755Z,-23333.13
2022-12-19T14:24:16.977Z,-23331.06
2022-12-19T14:28:20.527Z,-23328.34
2022-12-19T14:28:55.866Z,-23328.66
2022-12-19T14:31:01.629Z,-23328.66
2022-12-19T14:33:44.568Z,-23328.50
2022-12-19T14:36:09.709Z,-23328.03
2022-12-19T14:39:25.534Z,-23328.34
2022-12-19T14:40:28.042Z,-23327.38
2022-12-19T14:43:57.518Z,-23327.06
2022-12-19T14:52:34.429Z,-23324.53
2022-12-19T14:54:05.917Z,-23325.16
2022-12-19T14:54:10.512Z,-23324.84
2022-12-19T14:54:55.334Z,-23321.34
2022-12-19T14:56:16.052Z,-23324.84
2022-12-19T14:58:54.982Z,-23319.75
2022-12-19T15:00:34.959Z,-23331.06
2022-12-19T15:02:49.437Z,-23328.50
2022-12-19T15:05:04.237Z,-23325.16
2022-12-19T15:07:12.254Z,-23320.06
2022-12-19T15:10:59.425Z,-23315.59
2022-12-19T15:12:39.711Z,-23313.22
2022-12-19T15:14:56.395Z,-23312.59
2022-12-19T15:17:04.402Z,-23317.03
2022-12-19T15:19:13.387Z,-23317.38
2022-12-19T15:21:16.168Z,-23313.69
2022-12-19T15:23:22.380Z,-23310.69
2022-12-19T15:26:01.241Z,-23313.38
2022-12-19T15:27:48.318Z,-23306.38
2022-12-19T15:29:53.067Z,-23302.88
2022-12-19T15:31:55.761Z,-23303.81
2022-12-19T15:34:33.172Z,-23305.75
2022-12-19T15:36:22.123Z,-23307.16
2022-12-19T15:38:24.890Z,-23309.88
2022-12-19T15:40:27.633Z,-23313.06
2022-12-19T15:42:30.343Z,-23315.13
2022-12-19T15:44:35.374Z,-23308.59
2022-12-19T15:46:46.402Z,-23308.59
2022-12-19T15:48:51.148Z,-23308.59
2022-12-19T15:50:53.822Z,-23312.44
2022-12-19T15:52:58.613Z,-23307.00
2022-12-19T15:55:01.316Z,-23303.34
2022-12-19T15:57:04.064Z,-23300.47
2022-12-19T15:59:13.619Z,-23298.41
2022-12-19T16:01:16.327Z,-23298.25
2022-12-19T16:03:23.560Z,-23300.47
2022-12-19T16:05:29.176Z,-23297.28
2022-12-19T16:07:32.168Z,-23296.50
2022-12-19T16:09:34.946Z,-23293.94
2022-12-19T16:11:38.920Z,-23293.94
2022-12-19T16:13:42.515Z,-23290.75
2022-12-19T16:15:45.612Z,-23285.34
2022-12-19T16:17:48.727Z,-23280.56
2022-12-19T16:19:52.774Z,-23277.69
2022-12-19T16:21:56.069Z,-23278.19
2022-12-19T16:23:58.677Z,-23272.91
2022-12-19T16:26:01.393Z,-23273.56
2022-12-19T16:28:06.999Z,-23271.97
2022-12-19T16:30:19.292Z,-23271.81
2022-12-19T16:32:24.286Z,-23275.00
2022-12-19T16:34:27.383Z,-23276.25
2022-12-19T16:36:31.659Z,-23275.47
2022-12-19T16:38:34.463Z,-23278.50
2022-12-19T16:40:37.182Z,-23285.81
2022-12-19T16:42:40.139Z,-23285.34
2022-12-19T16:44:44.253Z,-23283.91
2022-12-19T16:46:50.963Z,-23281.19
2022-12-19T16:48:54.190Z,-23283.44
2022-12-19T16:50:57.879Z,-23283.91
2022-12-19T16:53:01.907Z,-23282.81
2022-12-19T16:55:04.854Z,-23286.47
2022-12-19T16:57:16.763Z,-23284.38
2022-12-19T16:59:22.953Z,-23286.63
2022-12-19T17:01:25.723Z,-23291.41
2022-12-19T17:03:33.493Z,-23287.91
2022-12-19T17:05:36.417Z,-23286.47
2022-12-19T17:07:39.180Z,-23287.25
2022-12-19T17:09:43.190Z,-23287.41
2022-12-19T17:11:48.963Z,-23288.84
2022-12-19T17:13:54.647Z,-23290.13
2022-12-19T17:15:59.385Z,-23292.03
2022-12-19T17:18:05.476Z,-23296.19
2022-12-19T17:20:17.428Z,-23294.75
2022-12-19T17:22:21.363Z,-23294.28
2022-12-19T17:24:24.393Z,-23293.94
2022-12-19T17:26:28.522Z,-23293.63
2022-12-19T17:28:31.147Z,-23295.53
2022-12-19T17:30:34.960Z,-23287.09
2022-12-19T17:32:37.744Z,-23287.56
2022-12-19T17:34:40.496Z,-23293.00
2022-12-19T17:36:43.138Z,-23299.03
2022-12-19T17:38:46.287Z,-23300.31
2022-12-19T17:40:49.031Z,-23303.50
2022-12-19T17:42:53.430Z,-23301.59
2022-12-19T17:44:56.225Z,-23300.97
2022-12-19T17:46:59.670Z,-23298.72
2022-12-19T17:49:02.384Z,-23299.03
2022-12-19T17:51:05.217Z,-23301.59
2022-12-19T17:53:14.128Z,-23302.88
2022-12-19T17:55:20.112Z,-23303.50
2022-12-19T17:57:22.815Z,-23304.78
2022-12-19T17:59:26.807Z,-23303.50
2022-12-19T18:01:30.400Z,-23299.22
2022-12-19T18:03:33.372Z,-23303.97
2022-12-19T18:05:37.300Z,-23302.88
2022-12-19T18:07:40.943Z,-23297.78
2022-12-19T18:09:44.318Z,-23295.88
2022-12-19T18:11:47.275Z,-23294.28
2022-12-19T18:13:50.036Z,-23299.22
2022-12-19T18:15:56.813Z,-23295.88
2022-12-19T18:18:00.029Z,-23295.06
2022-12-19T18:20:03.279Z,-23298.56
2022-12-19T18:22:07.824Z,-23296.50
2022-12-19T18:24:12.107Z,-23295.06
2022-12-19T18:26:15.574Z,-23297.94
2022-12-19T18:28:18.386Z,-23293.31
2022-12-19T18:30:23.297Z,-23297.94
2022-12-19T18:32:27.443Z,-23294.91
2022-12-19T18:34:32.348Z,-23296.50
2022-12-19T18:36:40.020Z,-23294.59
2022-12-19T18:38:42.698Z,-23292.53
2022-12-19T18:40:45.815Z,-23290.28
2022-12-19T18:42:48.929Z,-23287.75
2022-12-19T18:44:51.789Z,-23284.72
2022-12-19T18:46:54.483Z,-23283.13
2022-12-19T18:48:58.971Z,-23280.72
2022-12-19T18:51:02.194Z,-23280.25
2022-12-19T18:53:11.670Z,-23280.09
2022-12-19T18:55:17.760Z,-23279.28
2022-12-19T18:57:20.389Z,-23278.03
2022-12-19T18:59:23.140Z,-23279.94
2022-12-19T19:01:26.980Z,-23282.81
2022-12-19T19:03:32.402Z,-23280.88
2022-12-19T19:05:40.448Z,-23281.84
2022-12-19T19:07:43.147Z,-23281.84
2022-12-19T19:09:45.811Z,-23282.47
2022-12-19T19:11:48.557Z,-23283.75
2022-12-19T19:13:51.459Z,-23284.72
2022-12-19T19:15:56.461Z,-23281.19
2022-12-19T19:18:00.993Z,-23282.81
2022-12-19T19:20:04.427Z,-23285.03
2022-12-19T19:22:08.592Z,-23279.28
2022-12-19T19:24:14.604Z,-23282.47
2022-12-19T19:26:17.325Z,-23284.22
2022-12-19T19:28:20.071Z,-23286.16
2022-12-19T19:30:23.542Z,-23284.56
2022-12-19T19:32:26.863Z,-23281.03
2022-12-19T19:34:33.050Z,-23282.31
2022-12-19T19:36:39.512Z,-23282.94
2022-12-19T19:38:46.634Z,-23281.84
2022-12-19T19:40:49.315Z,-23282.31
2022-12-19T19:42:52.151Z,-23281.69
2022-12-19T19:44:54.801Z,-23279.59
2022-12-19T19:46:57.528Z,-23278.66
2022-12-19T19:49:00.293Z,-23280.09
2022-12-19T19:51:02.984Z,-23278.50
2022-12-19T19:53:05.969Z,-23278.19
2022-12-19T19:55:10.918Z,-23282.16
2022-12-19T19:57:13.568Z,-23280.56
2022-12-19T19:59:16.264Z,-23282.63
2022-12-19T20:01:19.149Z,-23285.66
2022-12-19T20:03:23.447Z,-23288.84
2022-12-19T20:05:26.503Z,-23292.34
2022-12-19T20:07:29.209Z,-23293.31
2022-12-19T20:09:32.339Z,-23293.78
2022-12-19T20:11:36.383Z,-23294.91
2022-12-19T20:13:39.367Z,-23291.88
2022-12-19T20:15:49.331Z,-23290.28
2022-12-19T20:17:52.930Z,-23289.31
2022-12-19T20:19:55.569Z,-23286.94
2022-12-19T20:22:00.115Z,-23289.19
2022-12-19T20:24:02.993Z,-23285.66
2022-12-19T20:26:06.810Z,-23283.13
2022-12-19T20:28:11.007Z,-23283.75
2022-12-19T20:30:14.428Z,-23286.78
2022-12-19T20:32:17.215Z,-23283.44
2022-12-19T20:34:20.838Z,-23283.75
2022-12-19T20:36:25.034Z,-23280.88
2022-12-19T20:38:28.753Z,-23280.88
2022-12-19T20:40:31.503Z,-23285.81
2022-12-19T20:42:34.176Z,-23284.88
2022-12-19T20:44:38.259Z,-23289.19
2022-12-19T20:46:41.065Z,-23290.44
2022-12-19T20:48:44.748Z,-23289.81
2022-12-19T20:50:47.447Z,-23288.84
2022-12-19T20:52:50.130Z,-23283.91
2022-12-19T20:54:52.753Z,-23279.28
2022-12-19T20:56:55.414Z,-23278.03
2022-12-19T20:58:58.605Z,-23278.34
2022-12-19T21:01:07.286Z,-23282.63
2022-12-19T21:05:32.646Z,-23280.56
2022-12-19T21:07:35.393Z,-23281.84
2022-12-19T21:09:38.603Z,-23280.56
2022-12-19T21:11:41.264Z,-23280.25
2022-12-19T21:13:44.326Z,-23280.25
2022-12-19T21:15:47.605Z,-23283.28
2022-12-19T21:17:51.647Z,-23283.44
2022-12-19T21:19:54.327Z,-23281.69
2022-12-19T21:21:57.086Z,-23280.25
2022-12-19T21:24:02.132Z,-23281.19
2022-12-19T21:26:05.765Z,-23280.88
2022-12-19T21:28:09.436Z,-23279.59
2022-12-19T21:30:12.629Z,-23282.94
2022-12-19T21:32:19.054Z,-23283.75
2022-12-19T21:34:23.659Z,-23282.63
2022-12-19T21:36:28.277Z,-23285.34
2022-12-19T21:38:30.917Z,-23285.19
2022-12-19T21:40:33.652Z,-23287.25
2022-12-19T21:42:36.251Z,-23285.19
2022-12-19T21:44:38.852Z,-23287.56
2022-12-19T21:46:41.534Z,-23284.72
2022-12-19T21:48:46.543Z,-23285.34
2022-12-19T21:50:57.412Z,-23285.66
2022-12-19T21:53:00.320Z,-23286.31
2022-12-19T21:55:03.069Z,-23286.47
2022-12-19T21:57:05.720Z,-23286.63
2022-12-19T21:59:11.771Z,-23283.91
2022-12-19T22:01:15.699Z,-23279.28
2022-12-19T22:03:18.589Z,-23274.03
2022-12-19T22:05:21.486Z,-23271.47
2022-12-19T22:07:25.568Z,-23269.72
2022-12-19T22:09:28.397Z,-23270.69
2022-12-19T22:11:31.357Z,-23271.97
2022-12-19T22:13:34.125Z,-23274.50
2022-12-19T22:15:37.185Z,-23273.56
2022-12-19T22:17:39.850Z,-23276.09
2022-12-19T22:19:42.604Z,-23277.69
2022-12-19T22:21:46.462Z,-23279.94
2022-12-19T22:23:50.645Z,-23278.34
2022-12-19T22:26:01.210Z,-23281.19
2022-12-19T22:28:04.033Z,-23285.66
2022-12-19T22:30:11.122Z,-23284.22
2022-12-19T22:32:14.111Z,-23285.03
2022-12-19T22:34:18.343Z,-23285.34
2022-12-19T22:36:27.969Z,-23290.44
2022-12-19T22:38:31.146Z,-23289.81
2022-12-19T22:40:35.281Z,-23292.69
2022-12-19T22:42:37.961Z,-23290.44
2022-12-19T22:44:40.685Z,-23291.56
2022-12-19T22:46:43.556Z,-23289.50
2022-12-19T22:48:47.496Z,-23291.09
2022-12-19T22:50:50.188Z,-23292.69
2022-12-19T22:52:52.929Z,-23291.25
2022-12-19T22:54:55.545Z,-23290.13
2022-12-19T22:56:59.577Z,-23294.75
2022-12-19T22:59:04.781Z,-23292.84
2022-12-19T23:01:15.753Z,-23294.59
2022-12-19T23:03:18.636Z,-23293.63
2022-12-19T23:05:21.469Z,-23293.16
2022-12-19T23:07:24.151Z,-23293.31
2022-12-19T23:09:27.636Z,-23291.09
2022-12-19T23:11:33.402Z,-23289.81
2022-12-19T23:13:37.544Z,-23293.63
2022-12-19T23:15:40.204Z,-23294.59
2022-12-19T23:17:42.832Z,-23299.84
2022-12-19T23:19:45.502Z,-23302.88
2022-12-19T23:21:48.341Z,-23309.72
2022-12-19T23:23:52.813Z,-23309.25
2022-12-19T23:25:55.510Z,-23310.19
2022-12-19T23:27:58.248Z,-23309.41
2022-12-19T23:30:02.262Z,-23308.91
2022-12-19T23:32:05.333Z,-23305.09
2022-12-19T23:34:08.193Z,-23299.22
2022-12-19T23:36:11.260Z,-23297.47
2022-12-19T23:38:13.932Z,-23294.75
2022-12-19T23:40:17.310Z,-23289.00
2022-12-19T23:42:20.369Z,-23288.69
2022-12-19T23:44:23.349Z,-23288.06
2022-12-19T23:46:28.116Z,-23287.25
2022-12-19T23:48:30.908Z,-23285.97
2022-12-19T23:50:33.722Z,-23282.16
2022-12-19T23:52:36.388Z,-23284.56
2022-12-19T23:54:39.096Z,-23283.91
2022-12-19T23:56:41.774Z,-23275.78
2022-12-19T23:58:45.792Z,-23265.91
